Alton, Virginia
Current Conditions -  °F | °C
As of 8:55 AM on Monday 24 Nov 2014 (Local Time) from KW78 Reporting Station
Clear Clear  
Wind Chill: 18°   Ceiling: Unl
Heat Index: 18°   Visibility: 10mi
Dew Point: 14°   Wind: 8mph
Humidity: 78%   Direction: 190°S
Pressure: 29.78"   Gusts: NA
Location:  36.57°N, 79°W
Report Text: KW78 241355Z AUTO 19007KT 10SM CLR 18/14 A2978 RMK AO1 T01750136
Loading
Personal Weather Stations






























Interactive Weather Map New forecast layout! Learn more

10-Day Weather Forecast

Advertisements
Track Severe Weather on mobile